createdAt,value
2022-08-14T12:19:12.086Z,8.05
2022-08-14T12:23:27.698Z,6.90
2022-08-14T12:27:51.761Z,7.43
2022-08-14T12:32:08.846Z,6.63
2022-08-14T12:36:25.458Z,5.82
2022-08-14T12:40:31.944Z,5.65
2022-08-14T12:44:43.122Z,6.47
2022-08-14T12:53:14.274Z,6.97
2022-08-14T12:57:20.811Z,6.30
2022-08-14T13:01:28.572Z,5.72
2022-08-14T13:05:38.303Z,6.15
2022-08-14T13:09:48.175Z,6.70
2022-08-14T13:14:00.484Z,7.22
2022-08-14T13:18:06.892Z,6.63
2022-08-14T13:22:19.475Z,5.10
2022-08-14T13:26:40.418Z,6.10
2022-08-14T13:30:53.654Z,6.15
2022-08-14T13:35:01.057Z,6.63
2022-08-14T13:39:07.115Z,6.32
2022-08-14T13:43:24.565Z,6.43
2022-08-14T13:47:36.950Z,6.00
2022-08-14T13:51:46.161Z,6.13
2022-08-14T13:55:53.688Z,6.70
2022-08-14T14:00:08.574Z,7.00
2022-08-14T14:04:20.338Z,7.07
2022-08-14T14:08:43.315Z,7.78
2022-08-14T14:12:56.133Z,6.38
2022-08-14T14:17:05.278Z,6.50
2022-08-14T14:21:12.870Z,6.38
2022-08-14T14:25:22.486Z,6.40
2022-08-14T14:29:28.950Z,6.32
2022-08-14T14:37:55.273Z,7.47
2022-08-14T14:42:04.406Z,7.10
2022-08-14T14:46:13.222Z,7.93
2022-08-14T14:50:21.958Z,7.43
2022-08-14T14:54:31.939Z,6.72
2022-08-14T14:58:46.406Z,6.60
2022-08-14T15:02:57.831Z,7.57
2022-08-14T15:07:08.102Z,6.13
2022-08-14T15:11:13.916Z,6.30
2022-08-14T15:15:19.319Z,6.78
2022-08-14T15:19:25.526Z,6.53
2022-08-14T15:23:44.729Z,6.68
2022-08-14T15:27:54.744Z,7.07
2022-08-14T15:32:00.348Z,7.20
2022-08-14T15:36:06.444Z,6.45
2022-08-14T15:40:34.346Z,7.65
2022-08-14T15:44:43.912Z,6.43
2022-08-14T15:49:03.477Z,6.82
2022-08-14T15:53:12.241Z,7.15
2022-08-14T15:57:21.514Z,6.57
2022-08-14T16:01:52.797Z,7.93
2022-08-14T16:05:54.424Z,7.47
2022-08-14T16:10:28.234Z,7.22
2022-08-14T16:14:34.420Z,6.68
2022-08-14T16:18:41.831Z,6.65
2022-08-14T16:23:00.258Z,6.50
2022-08-14T16:27:07.548Z,6.15
2022-08-14T16:31:16.721Z,7.05
2022-08-14T16:35:26.470Z,6.57
2022-08-14T16:39:53.825Z,7.00
2022-08-14T16:44:02.715Z,7.28
2022-08-14T16:48:54.844Z,9.18
2022-08-14T16:52:45.012Z,8.27
2022-08-14T16:57:16.331Z,7.38
2022-08-14T17:01:27.359Z,6.50
2022-08-14T17:05:38.417Z,7.00
2022-08-14T17:09:45.731Z,7.03
2022-08-14T17:14:00.638Z,6.35
2022-08-14T17:18:06.624Z,7.45
2022-08-14T17:22:17.315Z,7.43
2022-08-14T17:26:44.427Z,7.82
2022-08-14T17:30:53.717Z,7.45
2022-08-14T17:35:01.538Z,11.25
2022-08-14T17:39:11.787Z,9.85
2022-08-14T17:43:17.479Z,8.48
2022-08-14T17:47:24.470Z,8.55
2022-08-14T17:51:30.130Z,9.15
2022-08-14T17:56:01.916Z,8.82
2022-08-14T18:00:04.111Z,13.38
2022-08-14T18:04:24.729Z,13.75
2022-08-14T18:08:40.855Z,13.60
2022-08-14T18:12:50.938Z,10.63
2022-08-14T18:16:58.713Z,10.15
2022-08-14T18:21:24.592Z,9.82
2022-08-14T18:25:34.233Z,8.10
2022-08-14T18:29:55.494Z,7.30
2022-08-14T18:34:02.990Z,7.47
2022-08-14T18:38:26.030Z,7.28
2022-08-14T18:42:45.338Z,9.98
2022-08-14T18:47:28.794Z,9.57
2022-08-14T18:51:45.228Z,10.07
2022-08-14T18:55:54.679Z,7.97
2022-08-14T19:00:00.144Z,8.43
2022-08-14T19:04:08.489Z,8.70
2022-08-14T19:08:27.155Z,8.25
2022-08-14T19:13:13.086Z,7.57
2022-08-14T19:17:43.150Z,7.82
2022-08-14T19:22:29.588Z,7.35
2022-08-14T19:26:54.745Z,7.15
2022-08-14T19:31:37.001Z,7.32
2022-08-14T19:36:00.122Z,7.53
2022-08-14T19:40:19.410Z,6.70
2022-08-14T19:44:31.639Z,7.05
2022-08-14T19:48:38.045Z,6.60
2022-08-14T19:52:43.413Z,6.43
2022-08-14T19:56:54.011Z,6.55
2022-08-14T20:00:59.778Z,7.57
2022-08-14T20:05:11.334Z,7.30
2022-08-14T20:11:08.411Z,8.20
2022-08-14T20:13:49.495Z,7.40
2022-08-14T20:17:55.038Z,7.93
2022-08-14T20:22:34.802Z,7.22
2022-08-14T20:26:31.712Z,8.00
2022-08-14T20:30:44.807Z,7.97
2022-08-14T20:34:57.781Z,6.72
2022-08-14T20:39:04.162Z,7.88
2022-08-14T20:43:35.290Z,7.43
2022-08-14T20:47:53.710Z,7.75
2022-08-14T20:52:00.199Z,7.47
2022-08-14T21:00:52.523Z,7.95
2022-08-14T21:05:03.924Z,8.70
2022-08-14T21:09:43.814Z,8.30
2022-08-14T21:14:19.706Z,8.13
2022-08-14T21:18:17.314Z,10.07
2022-08-14T21:22:27.054Z,8.88
2022-08-14T21:26:52.027Z,8.55
2022-08-14T21:30:59.868Z,7.80
2022-08-14T21:35:08.659Z,7.90
2022-08-14T21:39:19.550Z,8.45
2022-08-14T21:43:26.938Z,7.43
2022-08-14T21:47:35.540Z,7.63
2022-08-14T21:51:54.930Z,6.97
2022-08-14T21:56:06.065Z,7.03
2022-08-14T22:00:35.086Z,6.78
2022-08-14T22:04:43.213Z,6.88
2022-08-14T22:08:52.793Z,6.70
2022-08-14T22:13:01.745Z,6.78
2022-08-14T22:17:12.625Z,6.18
2022-08-14T22:21:21.570Z,6.50
2022-08-14T22:25:34.042Z,5.80
2022-08-14T22:29:42.604Z,7.05
2022-08-14T22:33:57.685Z,6.97
2022-08-14T22:38:36.058Z,7.00
2022-08-14T22:42:35.304Z,6.68
2022-08-14T22:46:46.495Z,7.55
2022-08-14T22:50:53.315Z,6.47
2022-08-14T22:54:59.428Z,7.30
2022-08-14T22:59:11.583Z,6.53
2022-08-14T23:03:22.842Z,7.20
2022-08-14T23:08:59.027Z,6.57
2022-08-14T23:11:56.660Z,6.63
2022-08-14T23:16:02.142Z,6.28
2022-08-14T23:20:18.972Z,7.07
2022-08-14T23:24:27.802Z,6.90
2022-08-14T23:28:56.359Z,6.85
2022-08-14T23:33:00.841Z,6.85
2022-08-14T23:37:10.021Z,7.05
2022-08-14T23:41:17.450Z,6.70
2022-08-14T23:45:36.578Z,6.53
2022-08-14T23:50:01.124Z,6.65
2022-08-14T23:54:48.237Z,7.70
2022-08-14T23:58:37.050Z,7.00
